Time;durP1;ratioP1;P1;durP2;ratioP2;P2;SDS_P1;SDS_P2;PMS_P1;PMS_P2;Temp;Humidity;BMP_temperature;BMP_pressure;BME280_temperature;BME280_humidity;BME280_pressure;Samples;Min_cycle;Max_cycle;Signal;HPM_P1;HPM_P2
2023/07/04 00:01:04;;;;;;;5.50;2.73;;;;;;;13.12;100.00;96005.38;7392404;19;20916;-75
2023/07/04 00:03:32;;;;;;;3.07;2.43;;;;;;;13.29;100.00;96001.53;7394063;19;20399;-75
2023/07/04 00:05:59;;;;;;;3.50;2.20;;;;;;;13.43;100.00;96015.06;7392045;19;20385;-75
2023/07/04 00:08:27;;;;;;;2.27;2.07;;;;;;;13.47;100.00;96001.84;7395078;19;20381;-75
2023/07/04 00:10:58;;;;;;;2.70;1.97;;;;;;;13.60;100.00;96009.31;7393084;19;20378;-75
2023/07/04 00:13:27;;;;;;;5.40;2.50;;;;;;;13.82;100.00;96036.25;7395819;19;20475;-75
2023/07/04 00:15:55;;;;;;;2.80;2.60;;;;;;;13.67;100.00;96021.97;7391694;19;20417;-76
2023/07/04 00:18:25;;;;;;;4.47;2.00;;;;;;;13.57;100.00;96031.25;7395180;19;20400;-76
2023/07/04 00:20:55;;;;;;;3.93;3.63;;;;;;;13.41;100.00;96017.31;7393180;19;20425;-76
2023/07/04 00:23:31;;;;;;;2.77;2.40;;;;;;;13.64;100.00;96032.53;7402128;19;20724;-76
2023/07/04 00:25:58;;;;;;;2.67;2.20;;;;;;;13.38;100.00;96007.41;7403208;19;20383;-76
2023/07/04 00:28:25;;;;;;;4.33;2.80;;;;;;;12.81;100.00;95995.63;7402591;19;20374;-76
2023/07/04 00:30:54;;;;;;;3.63;2.50;;;;;;;13.14;100.00;96023.59;7400649;19;20367;-75
2023/07/04 00:33:24;;;;;;;5.77;2.50;;;;;;;13.13;100.00;96022.06;7402430;19;20364;-76
2023/07/04 00:36:00;;;;;;;2.97;2.10;;;;;;;13.10;100.00;96023.53;7397000;19;20427;-76
2023/07/04 00:38:27;;;;;;;3.27;2.83;;;;;;;12.81;100.00;96000.94;7399755;19;20886;-76
2023/07/04 00:40:54;;;;;;;2.67;2.20;;;;;;;12.83;100.00;96005.94;7400717;19;20412;-76
2023/07/04 00:43:22;;;;;;;5.60;2.40;;;;;;;13.07;100.00;96029.53;7398716;19;20393;-76
2023/07/04 00:45:56;;;;;;;3.93;2.63;;;;;;;13.23;100.00;96032.16;7400832;19;20381;-76
2023/07/04 00:48:23;;;;;;;7.07;3.00;;;;;;;13.09;100.00;96018.56;7410094;19;20377;-76
2023/07/04 00:50:57;;;;;;;3.77;2.83;;;;;;;13.08;100.00;96019.66;7415625;19;20345;-76
2023/07/04 00:53:24;;;;;;;4.00;2.63;;;;;;;13.12;100.00;96004.59;7399077;19;20378;-76
2023/07/04 00:55:51;;;;;;;3.50;3.20;;;;;;;12.85;100.00;96017.72;7400117;19;20396;-76
2023/07/04 00:58:18;;;;;;;3.10;2.17;;;;;;;12.37;100.00;96014.41;7398544;19;20364;-76
2023/07/04 01:00:46;;;;;;;5.57;2.23;;;;;;;12.07;100.00;96008.03;7400553;19;20377;-76
2023/07/04 01:03:18;;;;;;;3.97;2.50;;;;;;;12.25;100.00;96022.47;7398755;19;20378;-76
2023/07/04 01:06:27;;;;;;;3.70;2.30;;;;;;;12.63;100.00;96043.03;7400303;19;20388;-76
2023/07/04 01:09:00;;;;;;;5.30;3.53;;;;;;;11.98;100.00;95980.94;7397573;19;20389;-76
2023/07/04 01:11:32;;;;;;;2.57;2.37;;;;;;;12.43;100.00;96036.16;7400339;19;20750;-76
2023/07/04 01:13:59;;;;;;;2.73;2.50;;;;;;;12.56;100.00;96021.66;7400454;19;20373;-76
2023/07/04 01:16:26;;;;;;;2.70;2.43;;;;;;;12.69;100.00;96020.44;7397697;19;20445;-76
2023/07/04 01:18:56;;;;;;;2.53;2.23;;;;;;;12.71;100.00;96026.16;7399160;19;20358;-76
2023/07/04 01:21:27;;;;;;;3.10;2.47;;;;;;;12.56;100.00;96021.66;7399339;19;20389;-76
2023/07/04 01:24:01;;;;;;;3.80;3.00;;;;;;;12.80;100.00;96047.16;7397758;19;20365;-76
2023/07/04 01:26:31;;;;;;;4.30;3.90;;;;;;;12.69;100.00;96046.19;7398329;19;20444;-76
2023/07/04 01:29:00;;;;;;;3.47;2.50;;;;;;;12.50;100.00;96011.66;7398485;19;20392;-76
2023/07/04 01:31:30;;;;;;;4.03;2.70;;;;;;;12.71;100.00;96038.66;7400658;19;20441;-76
2023/07/04 01:33:58;;;;;;;2.27;2.10;;;;;;;12.70;100.00;96037.13;7396147;19;20941;-77
2023/07/04 01:36:31;;;;;;;3.10;2.80;;;;;;;12.57;100.00;96038.34;7419697;19;20470;-75
2023/07/04 01:38:59;;;;;;;6.27;2.47;;;;;;;12.40;100.00;96012.94;7424601;19;20871;-74
2023/07/04 01:41:26;;;;;;;2.77;2.57;;;;;;;12.58;100.00;96050.50;7421389;19;20437;-77
2023/07/04 01:44:01;;;;;;;3.60;3.30;;;;;;;12.59;100.00;96042.19;7400354;19;20378;-75
2023/07/04 01:46:28;;;;;;;5.30;2.90;;;;;;;12.39;100.00;96019.38;7399381;19;20437;-75
2023/07/04 01:48:56;;;;;;;3.23;2.73;;;;;;;12.32;100.00;96032.47;7398027;19;20947;-75
2023/07/04 01:51:32;;;;;;;4.13;3.20;;;;;;;12.20;100.00;96022.75;7394753;19;20490;-75
2023/07/04 01:54:00;;;;;;;3.70;2.67;;;;;;;12.27;100.00;96012.28;7397988;19;20397;-75
2023/07/04 01:56:28;;;;;;;2.60;2.40;;;;;;;12.13;100.00;96004.78;7395889;19;20422;-75
2023/07/04 01:58:56;;;;;;;2.90;2.60;;;;;;;12.27;100.00;96019.47;7398726;19;20353;-74
2023/07/04 02:01:24;;;;;;;3.10;2.80;;;;;;;12.35;100.00;96053.75;7396888;19;20735;-75
2023/07/04 02:03:52;;;;;;;2.63;2.43;;;;;;;11.98;100.00;96028.63;7398371;19;20434;-75
2023/07/04 02:06:19;;;;;;;3.30;2.53;;;;;;;12.30;100.00;96064.63;7396247;19;20424;-74
2023/07/04 02:08:47;;;;;;;4.03;2.90;;;;;;;12.10;100.00;96008.13;7397778;19;20376;-75
2023/07/04 02:11:14;;;;;;;3.20;2.90;;;;;;;11.99;100.00;96009.75;7397721;19;20341;-75
2023/07/04 02:13:41;;;;;;;5.00;2.37;;;;;;;12.26;100.00;96033.84;7397670;19;20408;-75
2023/07/04 02:16:08;;;;;;;3.17;2.40;;;;;;;12.49;100.00;96057.84;7393680;19;20440;-74
2023/07/04 02:18:35;;;;;;;2.90;2.70;;;;;;;12.22;100.00;96051.56;7396299;19;20400;-75
2023/07/04 02:21:02;;;;;;;3.00;2.80;;;;;;;12.32;100.00;96056.34;7396284;19;20711;-75
2023/07/04 02:23:30;;;;;;;3.20;2.80;;;;;;;12.23;100.00;96037.19;7399397;19;20374;-75
2023/07/04 02:25:57;;;;;;;3.00;2.80;;;;;;;12.19;100.00;96036.34;7395497;19;20987;-75
2023/07/04 02:28:24;;;;;;;3.53;2.83;;;;;;;12.24;100.00;96046.66;7397732;19;20382;-75
2023/07/04 02:30:59;;;;;;;2.70;2.20;;;;;;;12.08;100.00;96066.00;7395602;19;20385;-75
2023/07/04 02:33:27;;;;;;;3.63;3.33;;;;;;;11.78;100.00;96041.78;7395092;19;20693;-75
2023/07/04 02:35:55;;;;;;;2.80;2.50;;;;;;;11.47;100.00;96028.47;7395637;19;20493;-75
2023/07/04 02:38:22;;;;;;;3.33;3.03;;;;;;;11.74;100.00;96040.88;7392873;19;20701;-75
2023/07/04 02:40:51;;;;;;;3.13;2.83;;;;;;;11.81;100.00;96035.03;7396296;19;20396;-75
2023/07/04 02:43:19;;;;;;;3.93;3.37;;;;;;;11.67;100.00;96019.53;7394542;19;20409;-75
2023/07/04 02:45:46;;;;;;;4.70;3.13;;;;;;;11.54;100.00;95983.66;7395225;19;20852;-75
2023/07/04 02:48:15;;;;;;;6.63;2.90;;;;;;;12.11;100.00;96067.97;7394867;19;20371;-75
2023/07/04 02:50:42;;;;;;;3.00;2.80;;;;;;;11.58;100.00;96000.38;7395924;19;20431;-75
2023/07/04 02:53:09;;;;;;;8.13;2.87;;;;;;;11.52;100.00;96017.66;7394729;19;20431;-75
2023/07/04 02:55:37;;;;;;;3.20;2.90;;;;;;;11.70;100.00;96026.03;7395646;19;20736;-75
2023/07/04 02:58:05;;;;;;;4.83;2.67;;;;;;;12.05;100.00;96052.66;7391629;19;20376;-75
2023/07/04 03:00:34;;;;;;;6.00;3.17;;;;;;;11.74;100.00;96025.00;7396397;19;20797;-75
2023/07/04 03:03:02;;;;;;;4.53;2.83;;;;;;;11.84;100.00;96035.13;7394120;19;20376;-75
2023/07/04 03:05:31;;;;;;;3.30;3.00;;;;;;;11.48;100.00;95990.28;7395707;19;20397;-75
2023/07/04 03:07:58;;;;;;;3.30;2.90;;;;;;;11.83;100.00;96035.47;7393095;19;20432;-76
2023/07/04 03:10:26;;;;;;;4.70;3.30;;;;;;;11.36;100.00;96041.44;7395609;19;20381;-76
2023/07/04 03:12:54;;;;;;;4.73;3.40;;;;;;;11.64;100.00;96043.28;7394679;19;20401;-75
2023/07/04 03:15:23;;;;;;;3.20;3.00;;;;;;;11.76;100.00;96065.19;7395785;19;20515;-75
2023/07/04 03:17:53;;;;;;;3.53;2.73;;;;;;;11.84;100.00;96051.03;7392370;19;20443;-75
2023/07/04 03:20:20;;;;;;;3.33;3.03;;;;;;;12.05;100.00;96076.50;7396045;19;20403;-75
2023/07/04 03:22:51;;;;;;;3.10;2.60;;;;;;;11.90;100.00;96050.78;7394319;19;20995;-75
2023/07/04 03:25:19;;;;;;;3.30;3.00;;;;;;;12.16;100.00;96051.06;7396189;19;20403;-75
2023/07/04 03:27:50;;;;;;;3.77;3.13;;;;;;;12.19;100.00;96054.88;7393075;19;20435;-75
2023/07/04 03:30:21;;;;;;;4.67;3.17;;;;;;;12.18;100.00;96058.66;7393649;19;20484;-75
2023/07/04 03:32:52;;;;;;;4.63;3.00;;;;;;;12.02;100.00;96048.03;7392022;19;20385;-75
2023/07/04 03:35:19;;;;;;;3.10;2.80;;;;;;;11.80;100.00;96052.06;7393263;19;20337;-75
2023/07/04 03:37:47;;;;;;;3.27;2.97;;;;;;;11.82;100.00;96068.38;7392681;19;20982;-75
2023/07/04 03:40:14;;;;;;;4.27;3.40;;;;;;;11.90;100.00;96059.50;7394202;19;20380;-75
2023/07/04 03:42:41;;;;;;;4.63;3.43;;;;;;;11.92;100.00;96053.84;7394869;19;20397;-75
2023/07/04 03:45:09;;;;;;;3.70;3.40;;;;;;;11.64;100.00;96032.69;7393775;19;20384;-75
2023/07/04 03:47:36;;;;;;;8.13;3.33;;;;;;;11.82;100.00;96055.13;7393256;19;20433;-75
2023/07/04 03:50:06;;;;;;;4.57;3.23;;;;;;;11.75;100.00;96042.47;7393484;19;20433;-75
2023/07/04 03:52:34;;;;;;;3.40;3.10;;;;;;;11.66;100.00;96086.09;7395374;19;20473;-75
2023/07/04 03:55:01;;;;;;;3.00;2.80;;;;;;;11.20;100.00;96049.31;7393507;19;20400;-75
2023/07/04 03:57:28;;;;;;;3.43;3.10;;;;;;;11.43;100.00;96059.38;7397402;19;20443;-75
2023/07/04 03:59:55;;;;;;;6.00;3.43;;;;;;;11.62;100.00;96078.06;7401405;19;20398;-75
2023/07/04 04:02:23;;;;;;;3.30;3.00;;;;;;;11.64;100.00;96081.13;7402323;19;20368;-75
2023/07/04 04:04:50;;;;;;;7.03;3.90;;;;;;;11.67;100.00;96080.44;7398667;19;20403;-75
2023/07/04 04:07:17;;;;;;;3.00;2.70;;;;;;;11.80;100.00;96073.25;7400457;19;20429;-75
2023/07/04 04:09:45;;;;;;;6.50;3.13;;;;;;;11.82;100.00;96058.53;7400273;19;20721;-75
2023/07/04 04:12:12;;;;;;;4.83;3.00;;;;;;;11.93;100.00;96060.69;7402208;19;20373;-75
2023/07/04 04:14:39;;;;;;;4.60;3.87;;;;;;;11.93;100.00;96063.34;7397850;19;20354;-75
2023/07/04 04:17:06;;;;;;;4.70;3.77;;;;;;;12.21;100.00;96092.41;7401767;19;20413;-75
2023/07/04 04:19:33;;;;;;;3.53;3.23;;;;;;;12.21;100.00;96097.72;7400066;19;20967;-75
2023/07/04 04:22:01;;;;;;;3.90;3.60;;;;;;;12.11;100.00;96069.84;7402230;19;20376;-75
2023/07/04 04:24:28;;;;;;;3.80;2.80;;;;;;;12.40;100.00;96089.84;7400453;19;20364;-75
2023/07/04 04:26:57;;;;;;;4.50;3.70;;;;;;;12.48;100.00;96096.84;7402373;19;20419;-74
2023/07/04 04:29:23;;;;;;;4.97;3.27;;;;;;;12.48;100.00;96080.94;7402105;19;20341;-75
2023/07/04 04:31:50;;;;;;;5.07;3.10;;;;;;;12.69;100.00;96089.41;7402655;19;20692;-75
2023/07/04 04:34:18;;;;;;;5.73;3.37;;;;;;;12.91;100.00;96097.81;7401258;19;20369;-75
2023/07/04 04:36:45;;;;;;;6.23;3.00;;;;;;;13.06;100.00;96080.31;7399141;19;20728;-75
2023/07/04 04:39:13;;;;;;;3.13;2.93;;;;;;;13.16;100.00;96099.09;7399344;19;20377;-75
2023/07/04 04:41:41;;;;;;;4.20;3.80;;;;;;;12.78;100.00;96081.22;7399227;19;20373;-75
2023/07/04 04:44:08;;;;;;;7.73;3.73;;;;;;;12.58;100.00;96091.03;7397942;19;20365;-75
2023/07/04 04:46:36;;;;;;;4.70;4.17;;;;;;;12.79;100.00;96090.72;7399428;19;20385;-75
2023/07/04 04:49:03;;;;;;;7.30;4.67;;;;;;;12.84;100.00;96092.38;7400996;19;20495;-75
2023/07/04 04:51:31;;;;;;;4.27;3.70;;;;;;;13.05;100.00;96108.72;7399004;19;20345;-76
2023/07/04 04:54:01;;;;;;;3.97;3.43;;;;;;;13.10;100.00;96097.09;7399920;19;20340;-75
2023/07/04 04:56:28;;;;;;;4.93;3.17;;;;;;;13.42;100.00;96121.66;7398114;19;20420;-75
2023/07/04 04:58:56;;;;;;;6.13;3.83;;;;;;;13.63;100.00;96129.28;7397870;19;20376;-76
2023/07/04 05:01:24;;;;;;;3.40;2.83;;;;;;;13.76;100.00;96139.44;7399542;19;20361;-75
2023/07/04 05:03:55;;;;;;;4.10;2.97;;;;;;;14.04;100.00;96144.50;7399958;19;20467;-75
2023/07/04 05:06:25;;;;;;;5.40;3.63;;;;;;;13.90;100.00;96123.75;7397538;19;20398;-75
2023/07/04 05:08:52;;;;;;;4.53;3.70;;;;;;;14.00;100.00;96132.25;7399862;19;20767;-75
2023/07/04 05:11:20;;;;;;;5.67;3.60;;;;;;;13.89;100.00;96134.72;7399834;19;20377;-75
2023/07/04 05:13:49;;;;;;;5.30;4.10;;;;;;;13.60;100.00;96104.94;7399933;19;20390;-74
2023/07/04 05:16:19;;;;;;;4.57;3.90;;;;;;;13.82;100.00;96100.81;7394413;19;20426;-75
2023/07/04 05:18:48;;;;;;;4.43;3.87;;;;;;;14.16;100.00;96144.34;7398051;19;20386;-75
2023/07/04 05:21:17;;;;;;;3.70;3.40;;;;;;;14.66;100.00;96158.47;7398604;19;20519;-75
2023/07/04 05:23:46;;;;;;;3.83;3.33;;;;;;;14.92;100.00;96144.41;7397067;19;20764;-75
2023/07/04 05:26:20;;;;;;;5.50;3.20;;;;;;;14.93;100.00;96137.19;7398330;19;20443;-75
2023/07/04 05:28:49;;;;;;;5.00;3.70;;;;;;;15.01;100.00;96158.25;7398344;19;20381;-75
2023/07/04 05:31:18;;;;;;;4.23;3.10;;;;;;;14.93;100.00;96153.19;7400752;19;20370;-75
2023/07/04 05:33:45;;;;;;;4.10;3.30;;;;;;;15.13;100.00;96169.84;7397332;19;20391;-75
2023/07/04 05:36:17;;;;;;;4.20;3.77;;;;;;;15.52;100.00;96175.69;7398621;19;20434;-75
2023/07/04 05:38:49;;;;;;;11.80;3.50;;;;;;;15.75;100.00;96164.94;7396135;19;20410;-75
2023/07/04 05:41:18;;;;;;;4.03;3.30;;;;;;;15.79;100.00;96168.44;7399580;19;20365;-76
2023/07/04 05:43:45;;;;;;;3.50;2.80;;;;;;;15.70;100.00;96165.28;7398501;19;20377;-75
2023/07/04 05:46:14;;;;;;;4.27;3.47;;;;;;;15.68;100.00;96184.28;7400358;19;20394;-75
2023/07/04 05:48:42;;;;;;;4.30;3.90;;;;;;;15.61;100.00;96182.28;7398182;19;20385;-75
2023/07/04 05:51:12;;;;;;;3.97;3.07;;;;;;;15.60;100.00;96178.09;7399473;19;20365;-75
2023/07/04 05:53:41;;;;;;;3.27;2.90;;;;;;;15.25;100.00;96129.66;7396709;19;20358;-75
2023/07/04 05:56:15;;;;;;;3.80;3.40;;;;;;;15.60;100.00;96158.66;7398923;19;20438;-77
2023/07/04 05:58:44;;;;;;;6.83;3.40;;;;;;;15.66;100.00;96143.91;7397479;19;20381;-76
2023/07/04 06:01:13;;;;;;;3.57;3.27;;;;;;;16.26;100.00;96189.88;7394219;19;20357;-77
2023/07/04 06:03:40;;;;;;;6.00;3.10;;;;;;;16.27;100.00;96172.75;7397685;19;20342;-76
2023/07/04 06:06:22;;;;;;;3.60;3.10;;;;;;;16.08;100.00;96153.50;7395779;19;20413;-76
2023/07/04 06:08:49;;;;;;;3.63;3.03;;;;;;;16.04;100.00;96148.16;7402653;19;20727;-76
2023/07/04 06:11:17;;;;;;;4.87;4.10;;;;;;;15.94;100.00;96146.91;7398187;19;20384;-76
2023/07/04 06:13:45;;;;;;;9.23;3.70;;;;;;;16.24;100.00;96162.03;7398297;19;20366;-76
2023/07/04 06:16:11;;;;;;;5.53;3.03;;;;;;;16.60;100.00;96152.47;7393053;19;20429;-76
2023/07/04 06:18:39;;;;;;;6.60;3.23;;;;;;;16.36;100.00;96143.09;7397179;19;20481;-76
2023/07/04 06:21:15;;;;;;;4.00;3.00;;;;;;;16.40;100.00;96165.25;7396164;19;20389;-76
2023/07/04 06:23:45;;;;;;;3.83;3.40;;;;;;;16.57;100.00;96158.56;7395012;19;20381;-76
2023/07/04 06:26:13;;;;;;;3.43;3.03;;;;;;;16.98;100.00;96194.00;7396180;19;20430;-76
2023/07/04 06:28:41;;;;;;;4.00;3.23;;;;;;;16.89;100.00;96169.50;7396917;19;20374;-76
2023/07/04 06:31:13;;;;;;;4.00;3.50;;;;;;;17.18;100.00;96183.03;7397531;19;20366;-76
2023/07/04 06:33:41;;;;;;;5.00;3.43;;;;;;;17.52;100.00;96192.44;7395885;19;20420;-77
2023/07/04 06:36:10;;;;;;;3.80;3.50;;;;;;;17.65;100.00;96192.88;7397640;19;20422;-76
2023/07/04 06:38:38;;;;;;;5.20;4.13;;;;;;;17.14;100.00;96151.75;7395499;19;20454;-76
2023/07/04 06:41:07;;;;;;;4.47;4.07;;;;;;;17.41;100.00;96195.03;7396324;19;20407;-76
2023/07/04 06:43:34;;;;;;;4.67;3.90;;;;;;;17.65;100.00;96182.94;7395806;19;20401;-76
2023/07/04 06:46:02;;;;;;;6.57;4.17;;;;;;;17.70;100.00;96197.88;7396426;19;20409;-77
2023/07/04 06:48:30;;;;;;;6.13;4.47;;;;;;;17.77;100.00;96173.09;7395214;19;20410;-76
2023/07/04 06:51:15;;;;;;;4.17;3.73;;;;;;;18.35;100.00;96188.16;7396734;19;20381;-76
2023/07/04 06:53:43;;;;;;;7.10;3.63;;;;;;;18.37;100.00;96185.88;7395350;19;20715;-77
2023/07/04 06:56:16;;;;;;;5.43;4.30;;;;;;;18.20;100.00;96188.13;7396361;19;20427;-77
2023/07/04 06:58:46;;;;;;;6.73;4.30;;;;;;;17.57;100.00;96181.38;7395244;19;20393;-76
2023/07/04 07:01:14;;;;;;;7.70;5.33;;;;;;;17.52;100.00;96184.41;7395512;19;20402;-77
2023/07/04 07:03:40;;;;;;;4.80;4.20;;;;;;;17.81;100.00;96216.66;7395478;19;20434;-77
2023/07/04 07:06:09;;;;;;;7.40;4.30;;;;;;;17.95;100.00;96212.13;7393987;19;20836;-77
2023/07/04 07:08:37;;;;;;;10.50;5.00;;;;;;;17.87;100.00;96213.22;7395816;19;20361;-77
2023/07/04 07:11:10;;;;;;;8.57;5.50;;;;;;;17.98;100.00;96216.72;7392645;19;20398;-76
2023/07/04 07:13:38;;;;;;;9.17;5.13;;;;;;;17.82;100.00;96196.78;7395733;19;20352;-76
2023/07/04 07:16:11;;;;;;;7.23;5.40;;;;;;;18.35;100.00;96223.72;7393788;19;20476;-76
2023/07/04 07:18:40;;;;;;;6.47;5.10;;;;;;;18.02;100.00;96211.38;7397459;19;20402;-76
2023/07/04 07:21:10;;;;;;;12.60;5.17;;;;;;;18.35;100.00;96228.31;7394652;19;20740;-76
2023/07/04 07:23:38;;;;;;;7.80;5.60;;;;;;;18.06;100.00;96222.13;7396418;19;20371;-77
2023/07/04 07:26:08;;;;;;;9.77;5.97;;;;;;;17.86;100.00;96209.03;7397433;19;20401;-76
2023/07/04 07:28:40;;;;;;;6.03;5.43;;;;;;;17.80;100.00;96188.38;7396666;19;20363;-76
2023/07/04 07:31:21;;;;;;;8.77;6.10;;;;;;;18.46;100.00;96221.06;7395539;19;20373;-77
2023/07/04 07:33:57;;;;;;;7.13;5.70;;;;;;;18.60;100.00;96237.94;7402203;19;20382;-76
2023/07/04 07:36:31;;;;;;;10.83;5.47;;;;;;;18.16;100.00;96203.41;7410972;19;20433;-76
2023/07/04 07:39:02;;;;;;;10.43;5.83;;;;;;;18.43;100.00;96227.16;7417477;19;20351;-77
2023/07/04 07:41:36;;;;;;;7.50;5.53;;;;;;;18.63;100.00;96233.72;7407646;19;20410;-77
2023/07/04 07:44:04;;;;;;;7.20;5.00;;;;;;;18.58;100.00;96226.84;7399414;19;21275;-76
2023/07/04 07:46:32;;;;;;;8.90;5.80;;;;;;;18.98;100.00;96242.97;7399397;19;20972;-77
2023/07/04 07:48:58;;;;;;;11.67;5.50;;;;;;;18.76;100.00;96218.84;7402316;19;20395;-77
2023/07/04 07:51:26;;;;;;;5.97;5.40;;;;;;;19.03;100.00;96221.16;7400686;19;20392;-77
2023/07/04 07:53:55;;;;;;;7.00;5.33;;;;;;;18.77;100.00;96217.69;7403506;19;20720;-76
2023/07/04 07:56:24;;;;;;;6.57;4.93;;;;;;;18.86;100.00;96241.44;7399926;19;20429;-77
2023/07/04 07:58:51;;;;;;;8.60;5.40;;;;;;;19.31;100.00;96241.81;7402337;19;20342;-77
2023/07/04 08:01:21;;;;;;;6.30;5.57;;;;;;;19.44;100.00;96227.63;7400537;19;20413;-77
2023/07/04 08:03:49;;;;;;;6.60;4.90;;;;;;;19.68;100.00;96217.25;7401818;19;20375;-77
2023/07/04 08:06:30;;;;;;;9.07;5.17;;;;;;;19.14;100.00;96235.31;7399605;19;20447;-77
2023/07/04 08:08:59;;;;;;;6.97;5.73;;;;;;;18.97;100.00;96234.19;7403926;19;20417;-77
2023/07/04 08:11:27;;;;;;;9.63;5.70;;;;;;;18.88;100.00;96228.44;7400274;19;20395;-77
2023/07/04 08:13:56;;;;;;;8.23;6.23;;;;;;;18.98;97.49;96186.72;7402240;19;20390;-77
2023/07/04 08:16:50;;;;;;;10.03;6.53;;;;;;;19.19;98.31;96218.84;7397140;19;20511;-77
2023/07/04 08:19:19;;;;;;;9.57;6.57;;;;;;;19.78;99.17;96227.97;7398323;19;20404;-77
2023/07/04 08:21:46;;;;;;;10.20;6.27;;;;;;;19.62;95.49;96214.19;7401662;19;20367;-77
2023/07/04 08:24:14;;;;;;;7.70;6.27;;;;;;;19.63;93.17;96234.53;7400043;19;20394;-78
2023/07/04 08:26:44;;;;;;;8.73;6.27;;;;;;;19.32;90.89;96214.59;7401038;19;20431;-77
2023/07/04 08:29:12;;;;;;;7.00;5.70;;;;;;;19.70;92.29;96225.69;7400622;19;20732;-77
2023/07/04 08:31:39;;;;;;;8.03;5.97;;;;;;;19.67;87.41;96188.91;7401445;19;20851;-76
2023/07/04 08:34:06;;;;;;;8.17;7.07;;;;;;;19.67;87.77;96211.13;7401476;19;20345;-77
2023/07/04 08:36:33;;;;;;;8.20;6.87;;;;;;;19.73;88.35;96206.13;7406580;19;20456;-76
2023/07/04 08:39:00;;;;;;;19.33;6.40;;;;;;;19.86;89.83;96201.84;7407660;19;20370;-77
2023/07/04 08:41:43;;;;;;;7.90;6.23;;;;;;;20.08;88.51;96226.69;7401983;19;20878;-77
2023/07/04 08:44:16;;;;;;;8.93;6.50;;;;;;;20.49;87.84;96232.28;7399968;19;20396;-77
2023/07/04 08:46:46;;;;;;;9.07;7.27;;;;;;;20.22;85.02;96233.91;7396010;19;20402;-77
2023/07/04 08:49:34;;;;;;;10.70;7.30;;;;;;;20.21;85.55;96219.72;7400689;19;20377;-77
2023/07/04 08:52:17;;;;;;;11.97;7.00;;;;;;;20.40;83.25;96234.59;7401343;19;20388;-77
2023/07/04 08:54:44;;;;;;;7.73;6.90;;;;;;;20.28;83.68;96224.28;7398239;19;20369;-77
2023/07/04 08:57:36;;;;;;;7.07;6.37;;;;;;;20.09;90.04;96238.97;7400053;19;20395;-77
2023/07/04 09:00:12;;;;;;;11.27;7.03;;;;;;;20.47;87.11;96239.97;7398061;19;20379;-77
2023/07/04 09:03:14;;;;;;;10.70;7.60;;;;;;;20.06;87.25;96237.81;7402381;19;20350;-77
2023/07/04 09:06:00;;;;;;;8.80;7.50;;;;;;;20.73;85.55;96246.72;7396305;19;20942;-77
2023/07/04 09:08:27;;;;;;;12.90;8.77;;;;;;;20.33;84.70;96251.50;7400921;19;20702;-77
2023/07/04 09:11:01;;;;;;;16.80;9.40;;;;;;;19.77;88.16;96247.91;7397606;19;20364;-77
2023/07/04 09:13:34;;;;;;;9.73;8.77;;;;;;;20.23;84.74;96233.53;7410547;19;20379;-79
2023/07/04 09:16:06;;;;;;;12.87;9.27;;;;;;;20.74;83.12;96245.56;7431709;19;20412;-80
2023/07/04 09:18:38;;;;;;;11.13;8.50;;;;;;;20.98;83.46;96249.22;7434194;19;20469;-80
2023/07/04 09:21:21;;;;;;;13.90;9.57;;;;;;;21.26;80.38;96242.13;7409665;19;20408;-77
2023/07/04 09:23:50;;;;;;;15.43;7.40;;;;;;;21.05;81.10;96243.78;7396158;19;20391;-77
2023/07/04 09:26:24;;;;;;;11.13;9.13;;;;;;;20.28;82.16;96222.38;7396850;19;20777;-76
2023/07/04 09:28:54;;;;;;;12.63;8.37;;;;;;;20.43;84.42;96233.06;7399175;19;20387;-77
2023/07/04 09:31:25;;;;;;;9.07;7.50;;;;;;;20.02;87.72;96245.09;7398600;19;20392;-77
2023/07/04 09:33:53;;;;;;;14.23;9.80;;;;;;;20.42;84.79;96253.03;7398386;19;20415;-77
2023/07/04 09:36:25;;;;;;;12.67;8.83;;;;;;;20.13;86.67;96225.50;7399267;19;20792;-77
2023/07/04 09:38:57;;;;;;;16.43;8.20;;;;;;;20.66;81.84;96226.00;7397909;19;20721;-77
2023/07/04 09:41:26;;;;;;;10.20;8.30;;;;;;;20.51;83.01;96242.63;7401274;19;20392;-76
2023/07/04 09:43:55;;;;;;;11.83;9.23;;;;;;;21.02;78.95;96217.69;7398378;19;20357;-77
2023/07/04 09:46:28;;;;;;;18.20;11.50;;;;;;;21.07;76.96;96235.31;7395954;19;20442;-77
2023/07/04 09:49:38;;;;;;;11.60;10.40;;;;;;;20.70;77.28;96217.16;7398161;19;20374;-77
2023/07/04 09:52:17;;;;;;;12.70;9.97;;;;;;;21.01;76.73;96250.34;7397306;19;20396;-77
2023/07/04 09:54:44;;;;;;;12.50;9.33;;;;;;;21.44;77.05;96242.72;7394758;19;20388;-75
2023/07/04 09:57:27;;;;;;;11.23;9.90;;;;;;;21.53;77.09;96246.47;7396389;19;20419;-75
2023/07/04 10:00:12;;;;;;;16.20;9.30;;;;;;;21.36;76.89;96244.69;7397183;19;20384;-75
2023/07/04 10:02:39;;;;;;;18.83;10.97;;;;;;;21.61;75.71;96212.16;7398190;19;20410;-75
2023/07/04 10:05:09;;;;;;;13.87;11.37;;;;;;;21.89;74.33;96239.94;7398114;19;20396;-74
2023/07/04 10:07:37;;;;;;;15.10;9.10;;;;;;;22.30;73.92;96227.16;7393896;19;20783;-75
2023/07/04 10:10:12;;;;;;;13.47;11.00;;;;;;;22.48;72.44;96253.09;7397049;19;20902;-75
2023/07/04 10:12:45;;;;;;;14.30;11.70;;;;;;;22.80;70.16;96247.25;7397577;19;20396;-75
2023/07/04 10:15:24;;;;;;;16.93;12.50;;;;;;;22.31;68.98;96241.41;7399463;19;20489;-75
2023/07/04 10:17:51;;;;;;;14.93;11.60;;;;;;;22.04;70.25;96239.41;7394983;19;20510;-75
2023/07/04 10:20:18;;;;;;;20.43;11.27;;;;;;;21.79;71.47;96241.59;7396645;19;20387;-75
2023/07/04 10:22:51;;;;;;;19.33;11.73;;;;;;;21.14;74.39;96236.03;7396114;19;20348;-75
2023/07/04 10:25:21;;;;;;;16.63;12.03;;;;;;;20.74;75.76;96239.41;7398177;19;20380;-75
2023/07/04 10:27:53;;;;;;;15.77;12.30;;;;;;;21.01;73.95;96235.00;7395552;19;20427;-75
2023/07/04 10:30:25;;;;;;;14.80;11.03;;;;;;;21.21;70.25;96189.47;7397112;19;20390;-75
2023/07/04 10:32:55;;;;;;;20.43;12.00;;;;;;;21.45;69.50;96233.47;7399063;19;20932;-75
2023/07/04 10:35:27;;;;;;;14.80;11.60;;;;;;;21.98;69.45;96216.75;7397815;19;20399;-75
2023/07/04 10:37:59;;;;;;;15.67;14.00;;;;;;;21.71;67.75;96207.84;7403146;19;20384;-75
2023/07/04 10:40:28;;;;;;;16.27;13.33;;;;;;;21.83;67.68;96188.47;7402961;19;20416;-75
2023/07/04 10:43:10;;;;;;;15.00;12.77;;;;;;;21.93;65.98;96216.44;7410224;19;20381;-76
2023/07/04 10:45:40;;;;;;;17.90;12.50;;;;;;;22.26;65.98;96231.81;7400471;19;20432;-76
2023/07/04 10:48:22;;;;;;;18.60;12.30;;;;;;;22.65;65.16;96225.91;7393664;19;20871;-76
2023/07/04 10:50:54;;;;;;;19.00;12.13;;;;;;;23.49;65.92;96222.25;7394404;19;20476;-76
2023/07/04 10:53:22;;;;;;;17.13;13.47;;;;;;;23.47;63.89;96213.81;7392934;19;20362;-76
2023/07/04 10:55:56;;;;;;;15.13;11.87;;;;;;;23.37;65.97;96219.38;7397394;19;20380;-76
2023/07/04 10:58:27;;;;;;;15.30;12.77;;;;;;;22.57;63.32;96213.72;7396231;19;20378;-76
2023/07/04 11:00:58;;;;;;;18.47;14.73;;;;;;;22.75;63.82;96191.13;7392759;19;20411;-76
2023/07/04 11:03:37;;;;;;;19.97;13.33;;;;;;;22.32;64.05;96211.38;7392875;19;20718;-76
2023/07/04 11:06:09;;;;;;;14.90;11.47;;;;;;;23.12;65.43;96217.91;7402902;19;20389;-76
2023/07/04 11:08:39;;;;;;;17.33;14.73;;;;;;;23.31;63.19;96219.09;7430154;19;20377;-76
2023/07/04 11:11:09;;;;;;;15.30;13.67;;;;;;;23.27;63.38;96215.72;7420150;19;20719;-76
2023/07/04 11:13:48;;;;;;;20.63;13.30;;;;;;;23.35;62.79;96197.44;7398268;19;20354;-77
2023/07/04 11:16:17;;;;;;;15.07;13.47;;;;;;;23.78;62.20;96206.34;7392123;19;20434;-76
2023/07/04 11:19:03;;;;;;;16.37;12.30;;;;;;;23.62;61.34;96200.84;7397459;19;20456;-76
2023/07/04 11:21:31;;;;;;;15.33;13.33;;;;;;;23.29;61.17;96175.59;7398254;19;20388;-76
2023/07/04 11:24:18;;;;;;;15.70;11.83;;;;;;;23.20;63.11;96213.91;7394914;19;20410;-76
2023/07/04 11:27:08;;;;;;;15.47;11.90;;;;;;;22.53;63.93;96202.19;7394524;19;20436;-77
2023/07/04 11:29:48;;;;;;;14.03;11.93;;;;;;;23.18;64.71;96207.38;7399382;19;20401;-77
2023/07/04 11:32:18;;;;;;;13.20;11.80;;;;;;;22.83;64.29;96198.69;7395412;19;20374;-76
2023/07/04 11:34:49;;;;;;;14.90;12.43;;;;;;;22.49;64.06;96185.31;7397519;19;20393;-77
2023/07/04 11:37:31;;;;;;;14.27;12.80;;;;;;;22.53;63.88;96169.84;7395147;19;20416;-76
2023/07/04 11:40:10;;;;;;;20.30;11.60;;;;;;;23.00;63.26;96196.91;7395678;19;20398;-76